createdAt,value
2024-02-20T00:00:40.469Z,98.29
2024-02-20T00:03:28.706Z,97.98
2024-02-20T00:05:56.973Z,97.86
2024-02-20T00:08:25.247Z,98.18
2024-02-20T00:10:53.518Z,98.26
2024-02-20T00:13:22.565Z,98.10
2024-02-20T00:15:50.972Z,97.95
2024-02-20T00:18:19.478Z,97.44
2024-02-20T00:20:47.852Z,97.44
2024-02-20T00:23:16.146Z,97.07
2024-02-20T00:25:45.143Z,97.50
2024-02-20T00:28:14.049Z,97.14
2024-02-20T00:30:42.836Z,97.05
2024-02-20T00:33:11.431Z,97.03
2024-02-20T00:35:40.659Z,96.87
2024-02-20T00:38:09.004Z,97.04
2024-02-20T00:40:37.255Z,96.70
2024-02-20T00:43:05.586Z,96.85
2024-02-20T00:45:33.870Z,96.49
2024-02-20T00:48:02.207Z,96.25
2024-02-20T00:50:30.615Z,96.37
2024-02-20T00:52:59.341Z,96.42
2024-02-20T00:55:28.412Z,96.47
2024-02-20T00:57:59.686Z,95.82
2024-02-20T01:00:28.451Z,96.01
2024-02-20T01:03:00.429Z,95.87
2024-02-20T01:05:29.012Z,95.85
2024-02-20T01:07:58.648Z,96.15
2024-02-20T01:10:27.184Z,96.48
2024-02-20T01:12:56.102Z,96.78
2024-02-20T01:15:24.666Z,96.76
2024-02-20T01:17:54.573Z,96.53
2024-02-20T01:20:22.902Z,96.83
2024-02-20T01:22:51.945Z,96.76
2024-02-20T01:25:20.234Z,96.89
2024-02-20T01:27:48.569Z,96.65
2024-02-20T01:30:17.820Z,96.80
2024-02-20T01:32:46.064Z,96.59
2024-02-20T01:35:15.267Z,96.26
2024-02-20T01:37:43.756Z,96.19
2024-02-20T01:40:12.774Z,95.88
2024-02-20T01:42:41.105Z,96.06
2024-02-20T01:45:10.158Z,96.20
2024-02-20T01:47:38.482Z,96.27
2024-02-20T01:50:08.498Z,95.85
2024-02-20T01:52:37.076Z,96.18
2024-02-20T01:55:06.885Z,96.18
2024-02-20T01:57:35.442Z,96.16
2024-02-20T02:00:06.172Z,96.29
2024-02-20T02:02:40.412Z,96.02
2024-02-20T02:05:09.162Z,96.29
2024-02-20T02:07:37.702Z,96.03
2024-02-20T02:10:06.925Z,95.74
2024-02-20T02:12:35.598Z,96.17
2024-02-20T02:15:04.222Z,96.02
2024-02-20T02:17:32.486Z,96.38
2024-02-20T02:20:01.174Z,96.40
2024-02-20T02:22:29.424Z,96.82
2024-02-20T02:24:57.673Z,96.86
2024-02-20T02:27:25.924Z,96.88
2024-02-20T02:29:54.051Z,96.67
2024-02-20T02:32:22.814Z,96.78
2024-02-20T02:34:51.274Z,96.88
2024-02-20T02:37:19.672Z,96.86
2024-02-20T02:39:48.529Z,96.43
2024-02-20T02:42:16.646Z,96.54
2024-02-20T02:44:47.956Z,96.78
2024-02-20T02:47:16.329Z,97.08
2024-02-20T02:49:44.738Z,96.86
2024-02-20T02:52:13.071Z,96.63
2024-02-20T02:54:41.364Z,96.96
2024-02-20T02:57:10.086Z,96.92
2024-02-20T02:59:38.310Z,96.57
2024-02-20T03:02:07.271Z,96.73
2024-02-20T03:04:36.338Z,96.82
2024-02-20T03:07:04.791Z,96.83
2024-02-20T03:09:32.991Z,97.00
2024-02-20T03:12:01.212Z,97.02
2024-02-20T03:14:29.872Z,97.40
2024-02-20T03:16:58.063Z,97.51
2024-02-20T03:19:26.357Z,97.82
2024-02-20T03:21:56.062Z,97.80
2024-02-20T03:24:24.319Z,97.89
2024-02-20T03:26:52.447Z,98.31
2024-02-20T03:29:22.080Z,98.54
2024-02-20T03:31:50.990Z,98.38
2024-02-20T03:34:19.486Z,98.60
2024-02-20T03:36:47.833Z,98.81
2024-02-20T03:39:15.993Z,98.64
2024-02-20T03:41:44.170Z,98.12
2024-02-20T03:44:12.409Z,98.06
2024-02-20T03:46:40.670Z,98.14
2024-02-20T03:49:09.541Z,98.49
2024-02-20T03:51:37.957Z,98.72
2024-02-20T03:54:06.784Z,99.18
2024-02-20T03:56:34.796Z,99.00
2024-02-20T03:59:03.017Z,99.01
2024-02-20T04:01:31.665Z,99.20
2024-02-20T04:03:59.974Z,99.42
2024-02-20T04:06:29.777Z,99.65
2024-02-20T04:08:58.512Z,99.50
2024-02-20T04:11:26.806Z,99.39
2024-02-20T04:13:55.149Z,99.56
2024-02-20T04:16:23.410Z,99.45
2024-02-20T04:18:51.756Z,99.71
2024-02-20T04:21:20.018Z,99.59
2024-02-20T04:23:50.154Z,99.70
2024-02-20T04:26:18.360Z,99.85
2024-02-20T04:28:46.556Z,99.83
2024-02-20T04:31:15.839Z,99.65
2024-02-20T04:33:44.167Z,99.88
2024-02-20T04:36:12.441Z,99.96
2024-02-20T04:38:42.368Z,99.99
2024-02-20T04:41:11.533Z,99.97
2024-02-20T04:43:40.526Z,100.00
2024-02-20T04:46:08.864Z,100.00
2024-02-20T04:48:37.175Z,100.00
2024-02-20T04:51:05.577Z,100.00
2024-02-20T04:53:33.701Z,100.00
2024-02-20T04:56:02.018Z,100.00
2024-02-20T04:58:31.374Z,100.00
2024-02-20T05:00:59.820Z,100.00
2024-02-20T05:03:30.107Z,100.00
2024-02-20T05:05:58.416Z,100.00
2024-02-20T05:08:26.656Z,100.00
2024-02-20T05:10:55.374Z,100.00
2024-02-20T05:13:23.566Z,100.00
2024-02-20T05:15:51.941Z,100.00
2024-02-20T05:18:20.267Z,100.00
2024-02-20T05:20:48.535Z,100.00
2024-02-20T05:23:16.750Z,100.00
2024-02-20T05:25:46.012Z,100.00
2024-02-20T05:28:14.653Z,100.00
2024-02-20T05:30:42.920Z,100.00
2024-02-20T05:33:11.717Z,100.00
2024-02-20T05:35:40.068Z,100.00
2024-02-20T05:38:08.584Z,100.00
2024-02-20T05:40:36.813Z,100.00
2024-02-20T05:43:05.552Z,100.00
2024-02-20T05:45:34.739Z,100.00
2024-02-20T05:48:03.867Z,100.00
2024-02-20T05:50:33.123Z,100.00
2024-02-20T05:53:07.438Z,100.00
2024-02-20T05:55:35.808Z,100.00
2024-02-20T05:58:04.525Z,100.00
2024-02-20T06:00:32.891Z,100.00
2024-02-20T06:03:01.629Z,100.00
2024-02-20T06:05:29.910Z,100.00
2024-02-20T06:07:58.320Z,100.00
2024-02-20T06:10:26.620Z,100.00
2024-02-20T06:12:55.019Z,100.00
2024-02-20T06:15:23.731Z,100.00
2024-02-20T06:17:52.038Z,100.00
2024-02-20T06:20:20.475Z,99.99
2024-02-20T06:22:48.763Z,99.77
2024-02-20T06:25:17.216Z,99.45
2024-02-20T06:27:46.794Z,99.32
2024-02-20T06:30:15.307Z,99.29
2024-02-20T06:32:43.578Z,98.56
2024-02-20T06:35:12.287Z,98.20
2024-02-20T06:37:41.133Z,97.52
2024-02-20T06:40:09.489Z,96.42
2024-02-20T06:42:38.272Z,95.33
2024-02-20T06:45:08.512Z,94.85
2024-02-20T06:47:38.091Z,94.38
2024-02-20T06:50:10.226Z,94.48
2024-02-20T06:52:40.610Z,94.90
2024-02-20T06:55:09.884Z,94.97
2024-02-20T06:57:41.308Z,94.83
2024-02-20T07:00:13.544Z,94.17
2024-02-20T07:02:45.508Z,94.15
2024-02-20T07:05:14.650Z,93.99
2024-02-20T07:07:45.664Z,93.57
2024-02-20T07:10:14.255Z,93.42
2024-02-20T07:12:42.409Z,92.81
2024-02-20T07:15:10.625Z,92.69
2024-02-20T07:17:38.882Z,92.25
2024-02-20T07:20:08.215Z,92.22
2024-02-20T07:22:36.510Z,92.29
2024-02-20T07:25:05.252Z,92.73
2024-02-20T07:27:33.330Z,92.48
2024-02-20T07:30:01.587Z,92.83
2024-02-20T07:32:29.908Z,92.63
2024-02-20T07:34:58.312Z,92.22
2024-02-20T07:37:27.053Z,92.14
2024-02-20T07:39:55.481Z,92.06
2024-02-20T07:42:23.658Z,91.55
2024-02-20T07:44:51.776Z,91.82
2024-02-20T07:47:20.096Z,91.07
2024-02-20T07:49:48.847Z,89.64
2024-02-20T07:52:17.193Z,89.38
2024-02-20T07:54:45.368Z,89.24
2024-02-20T07:57:13.580Z,88.93
2024-02-20T07:59:42.137Z,89.25
2024-02-20T08:02:10.756Z,89.23
2024-02-20T08:04:39.582Z,88.28
2024-02-20T08:07:07.873Z,88.73
2024-02-20T08:09:37.090Z,89.17
2024-02-20T08:12:05.827Z,89.38
2024-02-20T08:14:34.026Z,88.67
2024-02-20T08:17:02.465Z,89.05
2024-02-20T08:19:30.744Z,88.45
2024-02-20T08:21:59.114Z,88.30
2024-02-20T08:24:27.427Z,88.73
2024-02-20T08:26:58.643Z,88.81
2024-02-20T08:29:29.438Z,88.01
2024-02-20T08:31:57.895Z,87.35
2024-02-20T08:34:26.465Z,87.17
2024-02-20T08:36:54.950Z,87.24
2024-02-20T08:39:24.864Z,86.98
2024-02-20T08:41:53.156Z,86.49
2024-02-20T08:44:21.507Z,87.21
2024-02-20T08:46:49.694Z,86.79
2024-02-20T08:49:18.819Z,86.47
2024-02-20T08:51:47.070Z,86.34
2024-02-20T08:54:15.296Z,86.72
2024-02-20T08:56:43.517Z,86.49
2024-02-20T08:59:11.734Z,84.78
2024-02-20T09:01:41.208Z,84.45
2024-02-20T09:04:10.641Z,84.41
2024-02-20T09:06:39.051Z,84.06
2024-02-20T09:09:07.327Z,84.66
2024-02-20T09:11:36.510Z,84.82
2024-02-20T09:14:04.777Z,85.09
2024-02-20T09:16:33.047Z,84.66
2024-02-20T09:19:03.470Z,84.59
2024-02-20T09:21:31.860Z,84.21
2024-02-20T09:24:00.065Z,83.66
2024-02-20T09:26:28.688Z,82.56
2024-02-20T09:28:56.914Z,83.44
2024-02-20T09:31:25.196Z,83.54
2024-02-20T09:33:53.580Z,83.14
2024-02-20T09:36:21.959Z,83.11
2024-02-20T09:38:50.089Z,82.07
2024-02-20T09:41:24.352Z,82.01
2024-02-20T09:43:52.772Z,82.36
2024-02-20T09:46:22.124Z,82.48
2024-02-20T09:48:51.401Z,82.63
2024-02-20T09:51:20.824Z,82.87
2024-02-20T09:53:54.355Z,82.46
2024-02-20T09:56:24.229Z,83.10
2024-02-20T09:58:52.514Z,82.11
2024-02-20T10:01:22.703Z,81.97
2024-02-20T10:03:51.944Z,81.98
2024-02-20T10:06:22.564Z,82.23
2024-02-20T10:08:55.477Z,82.00
2024-02-20T10:11:24.552Z,82.21
2024-02-20T10:13:57.284Z,81.85
2024-02-20T10:16:25.765Z,82.61
2024-02-20T10:19:01.612Z,82.31
2024-02-20T10:21:31.004Z,81.15
2024-02-20T10:24:09.551Z,81.37
2024-02-20T10:26:45.998Z,81.57
2024-02-20T10:29:15.428Z,81.77
2024-02-20T10:31:43.845Z,80.98
2024-02-20T10:34:14.983Z,80.95
2024-02-20T10:36:43.680Z,81.22
2024-02-20T10:39:12.323Z,81.59
2024-02-20T10:41:41.402Z,81.64
2024-02-20T10:44:09.738Z,81.20
2024-02-20T10:46:41.810Z,81.62
2024-02-20T10:49:24.971Z,81.35
2024-02-20T10:51:56.275Z,80.64
2024-02-20T10:54:31.875Z,80.81
2024-02-20T10:57:08.564Z,81.37
2024-02-20T10:59:39.106Z,81.35
2024-02-20T11:02:07.318Z,81.27
2024-02-20T11:04:36.301Z,81.41
2024-02-20T11:07:07.842Z,81.02
2024-02-20T11:09:36.506Z,81.38
2024-02-20T11:12:10.075Z,81.30
2024-02-20T11:14:38.459Z,81.02
2024-02-20T11:17:24.616Z,80.78
2024-02-20T11:20:18.113Z,81.76
2024-02-20T11:22:47.615Z,81.71
2024-02-20T11:25:33.834Z,83.24
2024-02-20T11:28:15.967Z,84.62
2024-02-20T11:30:47.487Z,84.44
2024-02-20T11:33:19.114Z,85.14
2024-02-20T11:35:49.487Z,84.58
2024-02-20T11:38:22.386Z,84.08
2024-02-20T11:40:51.003Z,84.41
2024-02-20T11:43:21.017Z,84.51
2024-02-20T11:45:57.753Z,84.61
2024-02-20T11:48:26.950Z,83.77
2024-02-20T11:50:58.053Z,84.51
2024-02-20T11:53:27.351Z,84.38
2024-02-20T11:55:57.097Z,84.32
2024-02-20T11:58:28.587Z,84.69
2024-02-20T12:01:05.373Z,84.88
2024-02-20T12:03:37.168Z,85.62
2024-02-20T12:06:09.289Z,85.86
2024-02-20T12:08:55.238Z,86.08
2024-02-20T12:11:31.626Z,86.81
2024-02-20T12:14:02.664Z,87.20
2024-02-20T12:16:31.791Z,86.36
2024-02-20T12:19:07.147Z,86.16
2024-02-20T12:21:46.008Z,85.76
2024-02-20T12:24:23.559Z,86.02
2024-02-20T12:26:52.575Z,86.70
2024-02-20T12:29:20.799Z,86.06
2024-02-20T12:31:49.865Z,85.79
2024-02-20T12:34:19.546Z,86.63
2024-02-20T12:36:50.129Z,86.55
2024-02-20T12:39:20.394Z,86.61
2024-02-20T12:41:48.918Z,86.73
2024-02-20T12:44:17.140Z,86.53
2024-02-20T12:46:45.921Z,86.32
2024-02-20T12:49:14.465Z,86.51
2024-02-20T12:51:42.915Z,86.97
2024-02-20T12:54:11.027Z,87.37
2024-02-20T12:56:39.243Z,87.54
2024-02-20T12:59:07.416Z,86.94
2024-02-20T13:01:35.864Z,87.31
2024-02-20T13:04:08.335Z,87.37
2024-02-20T13:06:36.788Z,87.09
2024-02-20T13:09:05.272Z,87.00
2024-02-20T13:11:34.709Z,86.64
2024-02-20T13:14:04.285Z,87.35
2024-02-20T13:16:32.822Z,87.58
2024-02-20T13:19:01.344Z,87.76
2024-02-20T13:21:29.777Z,87.38
2024-02-20T13:23:58.803Z,87.25
2024-02-20T13:26:27.225Z,87.27
2024-02-20T13:28:55.422Z,87.14
2024-02-20T13:31:24.114Z,87.28
2024-02-20T13:33:52.557Z,87.77
2024-02-20T13:36:21.015Z,87.96
2024-02-20T13:38:49.428Z,88.37
2024-02-20T13:41:17.853Z,88.36
2024-02-20T13:43:46.234Z,88.06
2024-02-20T13:46:14.609Z,87.81
2024-02-20T13:48:42.949Z,88.87
2024-02-20T13:51:11.343Z,89.73
2024-02-20T13:53:39.453Z,89.31
2024-02-20T13:56:07.776Z,88.34
2024-02-20T13:58:35.986Z,87.85
2024-02-20T14:01:04.711Z,88.47
2024-02-20T14:03:33.141Z,87.81
2024-02-20T14:06:01.488Z,87.14
2024-02-20T14:08:29.785Z,86.52
2024-02-20T14:10:58.400Z,86.96
2024-02-20T14:13:26.833Z,86.65
2024-02-20T14:15:56.054Z,86.58
2024-02-20T14:18:24.992Z,86.31
2024-02-20T14:20:59.005Z,86.72
2024-02-20T14:23:27.680Z,87.11
2024-02-20T14:25:56.639Z,86.60
2024-02-20T14:28:25.231Z,86.83
2024-02-20T14:31:01.554Z,86.55
2024-02-20T14:33:31.401Z,86.40
2024-02-20T14:36:01.600Z,86.32
2024-02-20T14:38:30.199Z,85.87
2024-02-20T14:40:58.954Z,85.86
2024-02-20T14:43:27.396Z,85.86
2024-02-20T14:45:56.834Z,86.32
2024-02-20T14:48:25.294Z,86.11
2024-02-20T14:50:53.611Z,85.89
2024-02-20T14:53:21.829Z,86.42
2024-02-20T14:55:50.450Z,86.85
2024-02-20T14:58:19.065Z,86.38
2024-02-20T15:00:47.740Z,85.73
2024-02-20T15:03:18.135Z,85.34
2024-02-20T15:05:48.383Z,85.27
2024-02-20T15:08:18.941Z,85.51
2024-02-20T15:10:47.538Z,85.04
2024-02-20T15:13:16.314Z,84.34
2024-02-20T15:15:45.058Z,84.44
2024-02-20T15:18:13.282Z,84.60
2024-02-20T15:20:43.977Z,84.60
2024-02-20T15:23:16.632Z,84.63
2024-02-20T15:25:46.282Z,85.60
2024-02-20T15:28:14.502Z,86.96
2024-02-20T15:30:42.797Z,88.23
2024-02-20T15:33:11.278Z,90.07
2024-02-20T15:35:39.608Z,91.43
2024-02-20T15:38:07.808Z,92.13
2024-02-20T15:40:42.375Z,93.07
2024-02-20T15:43:14.324Z,93.66
2024-02-20T15:45:44.392Z,94.51
2024-02-20T15:48:17.320Z,94.91
2024-02-20T15:50:48.014Z,95.36
2024-02-20T15:53:17.121Z,96.12
2024-02-20T15:55:46.615Z,96.75
2024-02-20T15:58:16.521Z,97.02
2024-02-20T16:00:45.593Z,97.44
2024-02-20T16:03:14.290Z,97.76
2024-02-20T16:05:42.576Z,98.26
2024-02-20T16:08:16.069Z,99.78
2024-02-20T16:10:46.801Z,99.87
2024-02-20T16:13:16.482Z,99.95
2024-02-20T16:15:46.408Z,100.00
2024-02-20T16:18:14.848Z,100.00
2024-02-20T16:20:44.406Z,100.00
2024-02-20T16:23:13.351Z,100.00
2024-02-20T16:25:41.617Z,100.00
2024-02-20T16:28:10.289Z,100.00
2024-02-20T16:30:38.623Z,100.00
2024-02-20T16:33:07.778Z,100.00
2024-02-20T16:35:36.266Z,100.00
2024-02-20T16:38:04.866Z,100.00
2024-02-20T16:40:33.248Z,100.00
2024-02-20T16:43:02.336Z,100.00
2024-02-20T16:45:33.001Z,100.00
2024-02-20T16:48:01.724Z,100.00
2024-02-20T16:50:34.301Z,100.00
2024-02-20T16:53:05.291Z,100.00
2024-02-20T16:55:33.816Z,100.00
2024-02-20T16:58:02.216Z,100.00
2024-02-20T17:00:31.514Z,100.00
2024-02-20T17:03:00.036Z,100.00
2024-02-20T17:05:29.272Z,100.00
2024-02-20T17:07:58.579Z,100.00
2024-02-20T17:10:28.391Z,100.00
2024-02-20T17:12:56.760Z,99.66
2024-02-20T17:15:25.047Z,99.30
2024-02-20T17:17:53.333Z,99.03
2024-02-20T17:20:21.709Z,99.28
2024-02-20T17:22:51.644Z,99.56
2024-02-20T17:25:22.375Z,99.38
2024-02-20T17:27:50.666Z,99.71
2024-02-20T17:30:19.651Z,99.90
2024-02-20T17:32:48.000Z,100.00
2024-02-20T17:35:16.562Z,100.00
2024-02-20T17:37:45.044Z,100.00
2024-02-20T17:40:14.455Z,100.00
2024-02-20T17:42:44.695Z,100.00
2024-02-20T17:45:17.929Z,100.00
2024-02-20T17:47:47.262Z,100.00
2024-02-20T17:50:16.478Z,100.00
2024-02-20T17:52:44.886Z,100.00
2024-02-20T17:55:13.173Z,100.00
2024-02-20T17:57:41.664Z,100.00
2024-02-20T18:00:10.474Z,100.00
2024-02-20T18:02:41.402Z,100.00
2024-02-20T18:05:10.178Z,100.00
2024-02-20T18:07:38.821Z,100.00
2024-02-20T18:10:07.754Z,100.00
2024-02-20T18:12:36.823Z,100.00
2024-02-20T18:15:08.699Z,100.00
2024-02-20T18:17:37.029Z,100.00
2024-02-20T18:20:06.915Z,100.00
2024-02-20T18:22:35.352Z,100.00
2024-02-20T18:25:04.505Z,100.00
2024-02-20T18:27:32.654Z,100.00
2024-02-20T18:30:00.877Z,100.00
2024-02-20T18:32:29.151Z,100.00
2024-02-20T18:34:57.708Z,100.00
2024-02-20T18:37:26.031Z,100.00
2024-02-20T18:39:54.541Z,100.00
2024-02-20T18:42:23.868Z,100.00
2024-02-20T18:44:52.091Z,100.00
2024-02-20T18:47:20.313Z,100.00
2024-02-20T18:49:51.636Z,100.00
2024-02-20T18:52:20.528Z,100.00
2024-02-20T18:54:48.681Z,100.00
2024-02-20T18:57:16.899Z,100.00
2024-02-20T18:59:45.025Z,100.00
2024-02-20T19:02:22.549Z,100.00
2024-02-20T19:04:56.791Z,100.00
2024-02-20T19:07:25.449Z,100.00
2024-02-20T19:09:54.190Z,100.00
2024-02-20T19:12:23.446Z,100.00
2024-02-20T19:14:52.109Z,100.00
2024-02-20T19:17:20.443Z,100.00
2024-02-20T19:19:49.053Z,100.00
2024-02-20T19:22:17.469Z,100.00
2024-02-20T19:24:45.802Z,100.00
2024-02-20T19:27:13.909Z,100.00
2024-02-20T19:29:42.331Z,100.00
2024-02-20T19:32:10.652Z,100.00
2024-02-20T19:34:43.695Z,100.00
2024-02-20T19:37:12.257Z,100.00
2024-02-20T19:39:40.533Z,100.00
2024-02-20T19:42:08.848Z,100.00
2024-02-20T19:44:39.835Z,100.00
2024-02-20T19:47:09.646Z,100.00
2024-02-20T19:49:38.612Z,100.00
2024-02-20T19:52:07.032Z,100.00
2024-02-20T19:54:35.488Z,100.00
2024-02-20T19:57:03.699Z,100.00
2024-02-20T19:59:31.964Z,100.00
2024-02-20T20:02:01.585Z,100.00
2024-02-20T20:04:30.043Z,100.00
2024-02-20T20:06:58.589Z,100.00
2024-02-20T20:09:26.949Z,100.00
2024-02-20T20:11:55.351Z,100.00
2024-02-20T20:14:24.530Z,100.00
2024-02-20T20:16:52.893Z,100.00
2024-02-20T20:19:21.317Z,100.00
2024-02-20T20:21:49.607Z,100.00
2024-02-20T20:24:19.142Z,100.00
2024-02-20T20:26:47.876Z,100.00
2024-02-20T20:29:16.288Z,100.00
2024-02-20T20:31:44.854Z,100.00
2024-02-20T20:34:13.244Z,100.00
2024-02-20T20:36:44.194Z,100.00
2024-02-20T20:39:12.584Z,100.00
2024-02-20T20:41:42.268Z,100.00
2024-02-20T20:44:10.770Z,100.00
2024-02-20T20:46:39.709Z,100.00
2024-02-20T20:49:08.413Z,100.00
2024-02-20T20:51:36.878Z,100.00
2024-02-20T20:54:05.107Z,100.00
2024-02-20T20:56:34.470Z,100.00
2024-02-20T20:59:03.671Z,100.00
2024-02-20T21:01:33.351Z,100.00
2024-02-20T21:04:04.481Z,100.00
2024-02-20T21:06:33.707Z,100.00
2024-02-20T21:09:01.948Z,100.00
2024-02-20T21:11:31.191Z,100.00
2024-02-20T21:13:59.458Z,100.00
2024-02-20T21:16:27.743Z,100.00
2024-02-20T21:18:56.166Z,100.00
2024-02-20T21:21:24.474Z,100.00
2024-02-20T21:23:53.531Z,100.00
2024-02-20T21:26:22.014Z,100.00
2024-02-20T21:28:51.257Z,100.00
2024-02-20T21:31:19.865Z,100.00
2024-02-20T21:33:48.172Z,100.00
2024-02-20T21:36:16.588Z,100.00
2024-02-20T21:38:44.817Z,100.00
2024-02-20T21:41:12.933Z,100.00
2024-02-20T21:43:41.814Z,100.00
2024-02-20T21:46:10.719Z,100.00
2024-02-20T21:48:39.108Z,100.00
2024-02-20T21:51:07.615Z,100.00
2024-02-20T21:53:36.242Z,100.00
2024-02-20T21:56:05.197Z,100.00
2024-02-20T21:58:33.298Z,100.00
2024-02-20T22:01:05.356Z,100.00
2024-02-20T22:03:34.924Z,100.00
2024-02-20T22:06:04.685Z,100.00
2024-02-20T22:08:33.527Z,100.00
2024-02-20T22:11:01.974Z,100.00
2024-02-20T22:13:30.743Z,100.00
2024-02-20T22:15:59.055Z,100.00
2024-02-20T22:18:27.411Z,100.00
2024-02-20T22:20:56.620Z,100.00
2024-02-20T22:23:24.826Z,100.00
2024-02-20T22:25:53.113Z,100.00
2024-02-20T22:28:21.484Z,100.00
2024-02-20T22:30:49.783Z,100.00
2024-02-20T22:33:18.127Z,100.00
2024-02-20T22:35:46.525Z,100.00
2024-02-20T22:38:15.052Z,100.00
2024-02-20T22:40:43.405Z,100.00
2024-02-20T22:43:11.719Z,100.00
2024-02-20T22:45:40.075Z,100.00
2024-02-20T22:48:08.697Z,100.00
2024-02-20T22:50:36.949Z,100.00
2024-02-20T22:53:05.274Z,100.00
2024-02-20T22:55:33.438Z,100.00
2024-02-20T22:58:01.725Z,100.00
2024-02-20T23:00:30.538Z,100.00
2024-02-20T23:02:58.853Z,100.00
2024-02-20T23:05:27.162Z,100.00
2024-02-20T23:07:55.516Z,100.00
2024-02-20T23:10:23.944Z,100.00
2024-02-20T23:12:52.238Z,100.00
2024-02-20T23:15:20.373Z,100.00
2024-02-20T23:17:49.024Z,100.00
2024-02-20T23:20:17.451Z,100.00
2024-02-20T23:22:45.937Z,100.00
2024-02-20T23:25:14.807Z,100.00
2024-02-20T23:27:43.208Z,100.00
2024-02-20T23:30:13.288Z,100.00
2024-02-20T23:32:41.758Z,100.00
2024-02-20T23:35:10.884Z,100.00
2024-02-20T23:37:39.485Z,100.00
2024-02-20T23:40:08.982Z,100.00
2024-02-20T23:42:37.096Z,100.00
2024-02-20T23:45:06.022Z,100.00
2024-02-20T23:47:34.293Z,100.00
2024-02-20T23:50:02.738Z,100.00
2024-02-20T23:52:31.222Z,100.00
2024-02-20T23:54:59.670Z,100.00
2024-02-20T23:57:29.456Z,100.00
2024-02-20T23:59:57.758Z,100.00
